createdAt,value
2023-05-19T00:03:05.958Z,21.9
2023-05-19T00:08:57.689Z,21.9
2023-05-19T00:14:34.258Z,21.9
2023-05-19T00:20:26.597Z,21.9
2023-05-19T00:26:18.853Z,21.9
2023-05-19T00:32:10.361Z,21.8
2023-05-19T00:38:02.153Z,21.8
2023-05-19T00:43:38.784Z,21.8
2023-05-19T00:49:15.324Z,21.8
2023-05-19T00:54:51.993Z,21.7
2023-05-19T01:00:28.860Z,21.7
2023-05-19T01:06:21.641Z,21.6
2023-05-19T01:12:13.565Z,21.6
2023-05-19T01:17:49.822Z,21.5
2023-05-19T01:23:41.762Z,21.5
2023-05-19T01:29:17.811Z,21.4
2023-05-19T01:34:39.154Z,21.4
2023-05-19T01:40:14.873Z,21.4
2023-05-19T01:45:51.557Z,21.3
2023-05-19T01:51:29.516Z,21.3
2023-05-19T01:57:20.992Z,21.2
2023-05-19T02:02:57.472Z,21.2
2023-05-19T02:14:24.758Z,21.1
2023-05-19T02:20:17.603Z,21.1
2023-05-19T02:25:53.322Z,21
2023-05-19T02:31:29.794Z,20.9
2023-05-19T02:37:06.500Z,20.9
2023-05-19T02:42:58.347Z,20.9
2023-05-19T02:48:19.013Z,20.8
2023-05-19T02:53:40.284Z,20.8
2023-05-19T02:59:32.237Z,20.7
2023-05-19T03:05:09.285Z,20.7
2023-05-19T03:11:01.390Z,20.6
2023-05-19T03:16:37.665Z,20.6
2023-05-19T03:22:29.352Z,20.6
2023-05-19T03:28:20.927Z,20.6
2023-05-19T03:34:14.641Z,20.5
2023-05-19T03:40:05.480Z,20.4
2023-05-19T03:45:57.801Z,20.4
2023-05-19T03:51:49.306Z,20.4
2023-05-19T03:57:25.053Z,20.4
2023-05-19T04:03:17.975Z,20.4
2023-05-19T04:09:09.564Z,20.4
2023-05-19T04:15:00.110Z,20.3
2023-05-19T04:20:52.937Z,20.3
2023-05-19T04:26:44.389Z,20.3
2023-05-19T04:32:35.641Z,20.3
2023-05-19T04:38:15.283Z,20.3
2023-05-19T04:44:07.359Z,20.3
2023-05-19T04:49:59.527Z,20.3
2023-05-19T04:55:52.955Z,20.3
2023-05-19T05:01:28.646Z,20.3
2023-05-19T05:07:20.912Z,20.4
2023-05-19T05:13:12.545Z,20.3
2023-05-19T05:19:04.518Z,20.3
2023-05-19T05:24:56.169Z,20.4
2023-05-19T05:30:32.759Z,20.4
2023-05-19T05:35:54.876Z,20.4
2023-05-19T05:41:45.554Z,20.4
2023-05-19T05:47:24.588Z,20.4
2023-05-19T05:53:28.574Z,20.4
2023-05-19T05:59:04.212Z,20.4
2023-05-19T06:04:41.349Z,20.4
2023-05-19T06:10:18.667Z,20.4
2023-05-19T06:16:10.772Z,20.4
2023-05-19T06:21:32.687Z,20.4
2023-05-19T06:27:25.368Z,20.4
2023-05-19T06:33:02.879Z,20.4
2023-05-19T06:38:58.150Z,20.4
2023-05-19T06:44:37.256Z,20.4
2023-05-19T06:50:13.426Z,20.3
2023-05-19T06:55:58.530Z,20.4
2023-05-19T07:01:35.441Z,20.4
2023-05-19T07:07:30.864Z,20.4
2023-05-19T07:13:08.862Z,20.4
2023-05-19T07:18:30.227Z,20.4
2023-05-19T07:23:50.341Z,20.5
2023-05-19T07:29:14.343Z,20.4
2023-05-19T07:34:50.960Z,20.4
2023-05-19T07:40:27.885Z,20.6
2023-05-19T07:45:33.941Z,20.5
2023-05-19T07:51:13.567Z,20.6
2023-05-19T07:56:34.068Z,20.6
2023-05-19T08:01:55.605Z,20.6
2023-05-19T08:07:32.781Z,20.5
2023-05-19T08:13:08.327Z,20.6
2023-05-19T08:18:45.291Z,20.5
2023-05-19T08:24:21.340Z,20.6
2023-05-19T08:29:56.781Z,20.6
2023-05-19T08:35:33.013Z,20.6
2023-05-19T08:40:53.962Z,20.6
2023-05-19T08:46:14.680Z,20.6
2023-05-19T08:51:53.905Z,20.6
2023-05-19T08:57:45.376Z,20.6
2023-05-19T09:03:40.636Z,20.6
2023-05-19T09:09:18.806Z,20.6
2023-05-19T09:14:55.129Z,20.6
2023-05-19T09:20:34.850Z,20.6
2023-05-19T09:26:11.697Z,20.6
2023-05-19T09:31:47.943Z,20.6
2023-05-19T09:37:24.463Z,20.6
2023-05-19T09:43:00.921Z,20.6
2023-05-19T09:48:53.591Z,20.6
2023-05-19T09:54:14.653Z,20.6
2023-05-19T09:59:54.063Z,20.6
2023-05-19T10:05:48.144Z,20.5
2023-05-19T10:11:24.549Z,20.5
2023-05-19T10:17:17.637Z,20.5
2023-05-19T10:22:38.791Z,20.6
2023-05-19T10:28:30.502Z,20.6
2023-05-19T10:34:24.423Z,20.5
2023-05-19T10:40:01.566Z,20.5
2023-05-19T10:45:38.473Z,20.5
2023-05-19T10:51:30.534Z,20.4
2023-05-19T10:57:23.467Z,20.5
2023-05-19T11:03:01.643Z,20.5
2023-05-19T11:08:59.985Z,20.4
2023-05-19T11:15:05.655Z,20.4
2023-05-19T11:20:58.169Z,20.4
2023-05-19T11:26:53.485Z,20.5
2023-05-19T11:32:46.471Z,20.4
2023-05-19T11:38:38.975Z,20.5
2023-05-19T11:44:31.168Z,20.4
2023-05-19T11:50:42.581Z,20.5
2023-05-19T11:56:37.643Z,20.5
2023-05-19T12:02:43.543Z,20.4
2023-05-19T12:08:42.541Z,20.4
2023-05-19T12:14:35.984Z,20.4
2023-05-19T12:20:29.660Z,20.4
2023-05-19T12:26:14.062Z,20.5
2023-05-19T12:32:06.304Z,20.4
2023-05-19T12:37:59.693Z,20.4
2023-05-19T12:43:52.333Z,20.4
2023-05-19T12:49:44.259Z,20.4
2023-05-19T12:55:39.737Z,20.4
2023-05-19T13:01:48.772Z,20.4
2023-05-19T13:07:42.442Z,20.4
2023-05-19T13:13:35.312Z,20.4
2023-05-19T13:19:41.229Z,20.4
2023-05-19T13:25:18.225Z,20.3
2023-05-19T13:30:55.343Z,20.4
2023-05-19T13:36:31.847Z,20.3
2023-05-19T13:42:24.139Z,20.3
2023-05-19T13:48:27.883Z,20.3
2023-05-19T13:54:19.960Z,20.3
2023-05-19T14:00:26.328Z,20.3
2023-05-19T14:06:04.724Z,20.3
2023-05-19T14:11:42.037Z,20.3
2023-05-19T14:18:02.769Z,20.3
2023-05-19T14:23:57.153Z,20.3
2023-05-19T14:29:50.217Z,20.3
2023-05-19T14:35:31.726Z,20.3
2023-05-19T14:41:24.000Z,20.3
2023-05-19T14:47:00.902Z,20.3
2023-05-19T14:52:40.846Z,20.3
2023-05-19T14:58:28.669Z,20.3
2023-05-19T15:04:09.358Z,20.3
2023-05-19T15:09:49.272Z,20.3
2023-05-19T15:15:41.690Z,20.4
2023-05-19T15:21:52.714Z,20.5
2023-05-19T15:27:43.607Z,20.5
2023-05-19T15:33:20.719Z,20.4
2023-05-19T15:38:56.682Z,20.6
2023-05-19T15:44:47.710Z,20.6
2023-05-19T15:50:40.417Z,20.6
2023-05-19T15:56:31.976Z,20.7
2023-05-19T16:02:09.521Z,20.7
2023-05-19T16:07:47.355Z,20.7
2023-05-19T16:13:39.275Z,20.7
2023-05-19T16:19:32.067Z,20.8
2023-05-19T16:25:08.922Z,20.8
2023-05-19T16:30:44.912Z,20.8
2023-05-19T16:36:21.537Z,20.7
2023-05-19T16:41:59.314Z,20.7
2023-05-19T16:47:37.050Z,20.7
2023-05-19T16:53:13.646Z,20.7
2023-05-19T16:59:05.593Z,20.7
2023-05-19T17:04:46.438Z,20.7
2023-05-19T17:09:51.826Z,20.7
2023-05-19T17:15:29.212Z,20.6
2023-05-19T17:21:06.003Z,20.7
2023-05-19T17:26:41.500Z,20.6
2023-05-19T17:32:34.105Z,20.6
2023-05-19T17:38:13.131Z,20.6
2023-05-19T17:43:48.603Z,20.6
2023-05-19T17:49:40.344Z,20.6
2023-05-19T17:55:01.050Z,20.6
2023-05-19T18:00:06.056Z,20.6
2023-05-19T18:05:43.861Z,20.6
2023-05-19T18:11:23.265Z,20.6
2023-05-19T18:16:59.192Z,20.6
2023-05-19T18:22:36.222Z,20.6
2023-05-19T18:28:12.553Z,20.6
2023-05-19T18:33:33.155Z,20.5
2023-05-19T18:38:53.474Z,20.6
2023-05-19T18:44:14.305Z,20.5
2023-05-19T18:49:19.464Z,20.5
2023-05-19T18:54:24.741Z,20.6
2023-05-19T18:59:31.223Z,20.5
2023-05-19T19:04:36.234Z,20.5
2023-05-19T19:09:56.922Z,20.5
2023-05-19T19:15:35.193Z,20.5
2023-05-19T19:21:11.238Z,20.6
2023-05-19T19:26:47.329Z,20.4
2023-05-19T19:32:24.167Z,20.5
2023-05-19T19:38:01.934Z,20.4
2023-05-19T19:43:38.535Z,20.5
2023-05-19T19:49:15.485Z,20.4
2023-05-19T19:55:06.310Z,20.5
2023-05-19T20:00:26.686Z,20.5
2023-05-19T20:06:38.276Z,20.4
2023-05-19T20:11:58.564Z,20.4
2023-05-19T20:17:36.317Z,20.4
2023-05-19T20:23:14.746Z,20.4
2023-05-19T20:29:13.341Z,20.4
2023-05-19T20:34:51.371Z,20.4
2023-05-19T20:40:11.624Z,20.4
2023-05-19T20:45:47.773Z,20.4
2023-05-19T20:51:24.465Z,20.4
2023-05-19T20:57:00.913Z,20.4
2023-05-19T21:02:36.478Z,20.4
2023-05-19T21:08:28.899Z,20.4
2023-05-19T21:14:04.999Z,20.4
2023-05-19T21:19:40.627Z,20.4
2023-05-19T21:25:17.515Z,20.4
2023-05-19T21:31:09.062Z,20.4
2023-05-19T21:37:00.057Z,20.4
2023-05-19T21:42:47.671Z,20.3
2023-05-19T21:48:42.157Z,20.4
2023-05-19T21:54:17.426Z,20.3
2023-05-19T22:00:09.325Z,20.4
2023-05-19T22:06:02.225Z,20.4
2023-05-19T22:11:52.716Z,20.3
2023-05-19T22:17:43.742Z,20.4
2023-05-19T22:23:33.263Z,20.4
2023-05-19T22:29:24.807Z,20.3
2023-05-19T22:35:19.780Z,20.3
2023-05-19T22:41:12.089Z,20.3
2023-05-19T22:47:04.459Z,20.3
2023-05-19T22:52:58.950Z,20.3
2023-05-19T22:58:51.242Z,20.3
2023-05-19T23:04:42.392Z,20.3
2023-05-19T23:10:33.069Z,20.3
2023-05-19T23:16:25.417Z,20.3
2023-05-19T23:22:17.647Z,20.2
2023-05-19T23:28:09.710Z,20.3
2023-05-19T23:34:03.597Z,20.3
2023-05-19T23:39:54.462Z,20.3
2023-05-19T23:45:45.782Z,20.3
2023-05-19T23:51:37.713Z,20.2
2023-05-19T23:57:29.440Z,20.2
